sensor_id;sensor_type;location;lat;lon;timestamp;pressure;altitude;pressure_sealevel;temperature;humidity
75166;BME280;63747;48.042;10.088;2023-06-26T00:02:35;95189.75;;;16.65;49.59
75166;BME280;63747;48.042;10.088;2023-06-26T00:05:36;95194.28;;;16.57;49.88
75166;BME280;63747;48.042;10.088;2023-06-26T00:08:37;95193.69;;;16.55;49.85
75166;BME280;63747;48.042;10.088;2023-06-26T00:11:37;95195.78;;;16.47;49.92
75166;BME280;63747;48.042;10.088;2023-06-26T00:14:38;95195.16;;;16.38;49.91
75166;BME280;63747;48.042;10.088;2023-06-26T00:17:39;95193.31;;;16.32;50.54
75166;BME280;63747;48.042;10.088;2023-06-26T00:20:40;95196.84;;;16.26;50.72
75166;BME280;63747;48.042;10.088;2023-06-26T00:23:41;95192.94;;;16.15;50.82
75166;BME280;63747;48.042;10.088;2023-06-26T00:26:41;95198.06;;;16.10;51.06
75166;BME280;63747;48.042;10.088;2023-06-26T00:29:42;95192.53;;;16.05;51.25
75166;BME280;63747;48.042;10.088;2023-06-26T00:32:43;95194.78;;;16.08;51.05
75166;BME280;63747;48.042;10.088;2023-06-26T00:35:44;95203.03;;;16.07;50.96
75166;BME280;63747;48.042;10.088;2023-06-26T00:38:45;95197.25;;;16.03;51.23
75166;BME280;63747;48.042;10.088;2023-06-26T00:41:45;95197.06;;;15.98;51.05
75166;BME280;63747;48.042;10.088;2023-06-26T00:44:46;95190.06;;;15.90;51.20
75166;BME280;63747;48.042;10.088;2023-06-26T00:47:47;95193.78;;;15.89;51.44
75166;BME280;63747;48.042;10.088;2023-06-26T00:50:48;95191.72;;;15.85;51.44
75166;BME280;63747;48.042;10.088;2023-06-26T00:53:49;95196.06;;;15.79;51.62
75166;BME280;63747;48.042;10.088;2023-06-26T00:56:50;95191.09;;;15.76;51.84
75166;BME280;63747;48.042;10.088;2023-06-26T00:59:53;95191.72;;;15.71;51.79
75166;BME280;63747;48.042;10.088;2023-06-26T01:02:54;95183.50;;;15.60;51.73
75166;BME280;63747;48.042;10.088;2023-06-26T01:06:05;95188.84;;;15.60;52.26
75166;BME280;63747;48.042;10.088;2023-06-26T01:09:06;95187.22;;;15.59;52.43
75166;BME280;63747;48.042;10.088;2023-06-26T01:12:07;95190.28;;;15.49;51.00
75166;BME280;63747;48.042;10.088;2023-06-26T01:15:08;95199.09;;;15.49;52.25
75166;BME280;63747;48.042;10.088;2023-06-26T01:18:09;95189.22;;;15.43;50.61
75166;BME280;63747;48.042;10.088;2023-06-26T01:21:11;95192.94;;;15.42;51.71
75166;BME280;63747;48.042;10.088;2023-06-26T01:24:17;95186.78;;;15.35;52.67
75166;BME280;63747;48.042;10.088;2023-06-26T01:27:30;95191.88;;;15.30;52.95
75166;BME280;63747;48.042;10.088;2023-06-26T01:30:34;95183.25;;;15.28;52.79
75166;BME280;63747;48.042;10.088;2023-06-26T01:33:37;95185.31;;;15.26;53.07
75166;BME280;63747;48.042;10.088;2023-06-26T01:36:38;95188.78;;;15.20;53.17
75166;BME280;63747;48.042;10.088;2023-06-26T01:39:39;95186.09;;;15.20;53.41
75166;BME280;63747;48.042;10.088;2023-06-26T01:42:40;95178.91;;;15.14;53.34
75166;BME280;63747;48.042;10.088;2023-06-26T01:45:41;95179.69;;;15.08;53.69
75166;BME280;63747;48.042;10.088;2023-06-26T01:52:07;95173.31;;;15.02;53.78
75166;BME280;63747;48.042;10.088;2023-06-26T01:58:24;95173.06;;;14.90;54.11
75166;BME280;63747;48.042;10.088;2023-06-26T02:01:25;95174.50;;;14.86;54.10
75166;BME280;63747;48.042;10.088;2023-06-26T02:04:26;95174.50;;;14.80;54.05
75166;BME280;63747;48.042;10.088;2023-06-26T02:07:27;95183.28;;;14.74;54.30
75166;BME280;63747;48.042;10.088;2023-06-26T02:10:28;95177.31;;;14.65;54.50
75166;BME280;63747;48.042;10.088;2023-06-26T02:13:30;95176.66;;;14.63;54.70
75166;BME280;63747;48.042;10.088;2023-06-26T02:16:30;95179.97;;;14.58;54.48
75166;BME280;63747;48.042;10.088;2023-06-26T02:19:31;95179.75;;;14.60;54.39
75166;BME280;63747;48.042;10.088;2023-06-26T02:22:32;95180.56;;;14.60;54.30
75166;BME280;63747;48.042;10.088;2023-06-26T02:25:33;95184.84;;;14.55;54.69
75166;BME280;63747;48.042;10.088;2023-06-26T02:28:34;95179.94;;;14.52;54.65
75166;BME280;63747;48.042;10.088;2023-06-26T02:31:35;95195.69;;;14.47;54.61
75166;BME280;63747;48.042;10.088;2023-06-26T02:34:35;95195.25;;;14.43;54.92
75166;BME280;63747;48.042;10.088;2023-06-26T02:37:36;95186.41;;;14.36;54.90
75166;BME280;63747;48.042;10.088;2023-06-26T02:40:37;95181.88;;;14.36;54.95
75166;BME280;63747;48.042;10.088;2023-06-26T02:43:37;95179.81;;;14.32;54.82
75166;BME280;63747;48.042;10.088;2023-06-26T02:46:38;95181.03;;;14.29;55.18
75166;BME280;63747;48.042;10.088;2023-06-26T02:49:39;95180.41;;;14.27;55.38
75166;BME280;63747;48.042;10.088;2023-06-26T02:52:39;95189.84;;;14.23;55.38
75166;BME280;63747;48.042;10.088;2023-06-26T02:55:40;95186.53;;;14.21;55.46
75166;BME280;63747;48.042;10.088;2023-06-26T02:58:41;95185.00;;;14.12;56.03
75166;BME280;63747;48.042;10.088;2023-06-26T03:01:42;95189.94;;;14.15;55.55
75166;BME280;63747;48.042;10.088;2023-06-26T03:04:42;95189.56;;;14.18;55.82
75166;BME280;63747;48.042;10.088;2023-06-26T03:07:43;95188.09;;;14.15;56.14
75166;BME280;63747;48.042;10.088;2023-06-26T03:10:44;95183.16;;;14.12;56.09
75166;BME280;63747;48.042;10.088;2023-06-26T03:13:45;95189.94;;;14.15;56.12
75166;BME280;63747;48.042;10.088;2023-06-26T03:16:46;95186.44;;;14.14;56.16
75166;BME280;63747;48.042;10.088;2023-06-26T03:19:46;95188.91;;;14.16;56.18
75166;BME280;63747;48.042;10.088;2023-06-26T03:22:47;95188.91;;;14.16;56.19
75166;BME280;63747;48.042;10.088;2023-06-26T03:25:48;95183.59;;;14.16;56.08
75166;BME280;63747;48.042;10.088;2023-06-26T03:28:49;95188.75;;;14.18;56.35
75166;BME280;63747;48.042;10.088;2023-06-26T03:31:50;95186.25;;;14.16;56.04
75166;BME280;63747;48.042;10.088;2023-06-26T03:34:51;95184.59;;;14.15;56.16
75166;BME280;63747;48.042;10.088;2023-06-26T03:37:53;95190.75;;;14.15;56.38
75166;BME280;63747;48.042;10.088;2023-06-26T03:40:53;95190.38;;;14.19;56.25
75166;BME280;63747;48.042;10.088;2023-06-26T03:43:54;95185.88;;;14.19;56.45
75166;BME280;63747;48.042;10.088;2023-06-26T03:46:56;95193.69;;;14.21;56.48
75166;BME280;63747;48.042;10.088;2023-06-26T03:49:57;95192.88;;;14.20;56.59
75166;BME280;63747;48.042;10.088;2023-06-26T03:52:57;95200.88;;;14.20;56.60
75166;BME280;63747;48.042;10.088;2023-06-26T03:55:59;95192.88;;;14.20;56.82
75166;BME280;63747;48.042;10.088;2023-06-26T03:59:00;95198.22;;;14.20;56.65
75166;BME280;63747;48.042;10.088;2023-06-26T04:02:00;95200.50;;;14.23;56.66
75166;BME280;63747;48.042;10.088;2023-06-26T04:05:01;95202.56;;;14.28;56.85
75166;BME280;63747;48.042;10.088;2023-06-26T04:08:04;95200.53;;;14.36;56.67
75166;BME280;63747;48.042;10.088;2023-06-26T04:11:04;95201.59;;;14.42;56.55
75166;BME280;63747;48.042;10.088;2023-06-26T04:14:05;95202.47;;;14.49;56.21
75166;BME280;63747;48.042;10.088;2023-06-26T04:17:06;95211.16;;;14.58;56.06
75166;BME280;63747;48.042;10.088;2023-06-26T04:20:07;95199.28;;;14.67;56.04
75166;BME280;63747;48.042;10.088;2023-06-26T04:23:08;95201.97;;;14.74;56.21
75166;BME280;63747;48.042;10.088;2023-06-26T04:26:09;95207.31;;;14.74;56.26
75166;BME280;63747;48.042;10.088;2023-06-26T04:29:14;95207.72;;;14.77;56.33
75166;BME280;63747;48.042;10.088;2023-06-26T04:32:18;95208.38;;;14.79;56.73
75166;BME280;63747;48.042;10.088;2023-06-26T04:35:18;95211.66;;;14.81;55.94
75166;BME280;63747;48.042;10.088;2023-06-26T04:38:21;95202.63;;;14.89;55.96
75166;BME280;63747;48.042;10.088;2023-06-26T04:41:21;95216.22;;;15.01;56.14
75166;BME280;63747;48.042;10.088;2023-06-26T04:44:22;95210.13;;;15.13;55.71
75166;BME280;63747;48.042;10.088;2023-06-26T04:47:23;95198.69;;;15.26;56.28
75166;BME280;63747;48.042;10.088;2023-06-26T04:50:23;95206.91;;;15.44;55.84
75166;BME280;63747;48.042;10.088;2023-06-26T04:53:25;95206.31;;;15.62;55.64
75166;BME280;63747;48.042;10.088;2023-06-26T04:56:26;95208.19;;;15.88;55.43
75166;BME280;63747;48.042;10.088;2023-06-26T04:59:26;95205.06;;;16.11;55.31
75166;BME280;63747;48.042;10.088;2023-06-26T05:02:27;95207.34;;;16.34;55.37
75166;BME280;63747;48.042;10.088;2023-06-26T05:05:28;95208.28;;;16.53;55.22
75166;BME280;63747;48.042;10.088;2023-06-26T05:08:28;95210.72;;;16.74;54.96
75166;BME280;63747;48.042;10.088;2023-06-26T05:11:29;95216.66;;;16.83;55.02
75166;BME280;63747;48.042;10.088;2023-06-26T05:14:30;95215.38;;;16.92;55.41
75166;BME280;63747;48.042;10.088;2023-06-26T05:17:31;95209.13;;;17.11;54.76
75166;BME280;63747;48.042;10.088;2023-06-26T05:20:31;95208.41;;;17.36;54.59
75166;BME280;63747;48.042;10.088;2023-06-26T05:23:33;95216.25;;;17.62;54.19
75166;BME280;63747;48.042;10.088;2023-06-26T05:26:34;95213.75;;;17.92;53.82
75166;BME280;63747;48.042;10.088;2023-06-26T05:29:35;95214.22;;;18.14;53.24
75166;BME280;63747;48.042;10.088;2023-06-26T05:32:38;95217.16;;;18.49;53.03
75166;BME280;63747;48.042;10.088;2023-06-26T05:35:40;95205.19;;;18.89;51.92
75166;BME280;63747;48.042;10.088;2023-06-26T05:38:41;95217.53;;;19.26;50.71
75166;BME280;63747;48.042;10.088;2023-06-26T05:41:43;95204.91;;;19.57;49.86
75166;BME280;63747;48.042;10.088;2023-06-26T05:44:44;95205.13;;;19.86;49.52
75166;BME280;63747;48.042;10.088;2023-06-26T05:47:44;95208.09;;;20.07;48.37
75166;BME280;63747;48.042;10.088;2023-06-26T05:50:46;95211.38;;;20.33;48.14
75166;BME280;63747;48.042;10.088;2023-06-26T05:53:47;95206.25;;;20.55;48.31
75166;BME280;63747;48.042;10.088;2023-06-26T05:56:48;95206.81;;;20.80;47.29
75166;BME280;63747;48.042;10.088;2023-06-26T05:59:51;95201.69;;;21.07;46.96
75166;BME280;63747;48.042;10.088;2023-06-26T06:02:51;95210.66;;;21.36;46.60
75166;BME280;63747;48.042;10.088;2023-06-26T06:05:54;95196.94;;;21.55;45.73
75166;BME280;63747;48.042;10.088;2023-06-26T06:08:54;95195.75;;;21.79;45.70
75166;BME280;63747;48.042;10.088;2023-06-26T06:11:55;95195.06;;;22.00;45.27
75166;BME280;63747;48.042;10.088;2023-06-26T06:14:56;95195.34;;;22.16;45.15
75166;BME280;63747;48.042;10.088;2023-06-26T06:17:57;95202.25;;;22.28;44.51
75166;BME280;63747;48.042;10.088;2023-06-26T06:20:57;95199.81;;;22.44;45.29
75166;BME280;63747;48.042;10.088;2023-06-26T06:23:58;95198.28;;;22.70;44.17
75166;BME280;63747;48.042;10.088;2023-06-26T06:27:01;95200.25;;;22.96;43.31
75166;BME280;63747;48.042;10.088;2023-06-26T06:30:02;95201.66;;;23.21;42.99
75166;BME280;63747;48.042;10.088;2023-06-26T06:33:03;95207.97;;;23.26;42.83
75166;BME280;63747;48.042;10.088;2023-06-26T06:36:04;95198.28;;;23.57;43.22
75166;BME280;63747;48.042;10.088;2023-06-26T06:39:05;95200.78;;;23.91;42.75
75166;BME280;63747;48.042;10.088;2023-06-26T06:42:05;95207.78;;;24.14;42.30
75166;BME280;63747;48.042;10.088;2023-06-26T06:45:07;95204.97;;;24.36;41.35
75166;BME280;63747;48.042;10.088;2023-06-26T06:48:07;95208.66;;;24.57;41.02
75166;BME280;63747;48.042;10.088;2023-06-26T06:51:08;95215.84;;;24.83;41.28
75166;BME280;63747;48.042;10.088;2023-06-26T06:54:14;95208.38;;;25.06;40.54
75166;BME280;63747;48.042;10.088;2023-06-26T06:57:21;95222.88;;;25.21;40.59
75166;BME280;63747;48.042;10.088;2023-06-26T07:00:21;95222.63;;;25.28;40.05
75166;BME280;63747;48.042;10.088;2023-06-26T07:03:22;95217.00;;;25.50;40.11
75166;BME280;63747;48.042;10.088;2023-06-26T07:06:23;95210.53;;;25.76;39.59
75166;BME280;63747;48.042;10.088;2023-06-26T07:09:23;95216.00;;;25.87;38.48
75166;BME280;63747;48.042;10.088;2023-06-26T07:12:24;95211.41;;;25.92;38.54
75166;BME280;63747;48.042;10.088;2023-06-26T07:15:25;95205.16;;;26.12;37.95
75166;BME280;63747;48.042;10.088;2023-06-26T07:18:26;95207.06;;;26.27;37.64
75166;BME280;63747;48.042;10.088;2023-06-26T07:21:26;95212.50;;;26.32;37.25
75166;BME280;63747;48.042;10.088;2023-06-26T07:24:27;95213.63;;;26.56;36.66
75166;BME280;63747;48.042;10.088;2023-06-26T07:27:28;95207.31;;;26.56;37.16
75166;BME280;63747;48.042;10.088;2023-06-26T07:30:28;95219.25;;;26.80;36.97
75166;BME280;63747;48.042;10.088;2023-06-26T07:33:29;95215.69;;;27.00;35.91
75166;BME280;63747;48.042;10.088;2023-06-26T07:36:30;95210.53;;;27.04;35.74
75166;BME280;63747;48.042;10.088;2023-06-26T07:39:30;95215.94;;;27.09;35.22
75166;BME280;63747;48.042;10.088;2023-06-26T07:42:31;95214.31;;;27.13;34.43
75166;BME280;63747;48.042;10.088;2023-06-26T07:45:32;95204.44;;;27.27;35.42
75166;BME280;63747;48.042;10.088;2023-06-26T07:48:32;95208.41;;;27.60;34.99
75166;BME280;63747;48.042;10.088;2023-06-26T07:51:33;95210.22;;;27.75;34.06
75166;BME280;63747;48.042;10.088;2023-06-26T07:54:34;95216.78;;;27.69;33.75
75166;BME280;63747;48.042;10.088;2023-06-26T07:57:34;95207.84;;;27.63;34.44
75166;BME280;63747;48.042;10.088;2023-06-26T08:00:35;95213.13;;;27.89;33.74
75166;BME280;63747;48.042;10.088;2023-06-26T08:03:36;95198.06;;;28.02;33.22
75166;BME280;63747;48.042;10.088;2023-06-26T08:06:36;95209.94;;;28.21;32.77
75166;BME280;63747;48.042;10.088;2023-06-26T08:09:40;95203.78;;;28.39;33.18
75166;BME280;63747;48.042;10.088;2023-06-26T08:12:42;95202.88;;;28.49;32.77
75166;BME280;63747;48.042;10.088;2023-06-26T08:15:45;95194.25;;;28.66;32.58
75166;BME280;63747;48.042;10.088;2023-06-26T08:18:45;95195.59;;;28.68;32.54
75166;BME280;63747;48.042;10.088;2023-06-26T08:21:47;95206.81;;;28.96;31.98
75166;BME280;63747;48.042;10.088;2023-06-26T08:24:48;95199.09;;;29.03;31.69
75166;BME280;63747;48.042;10.088;2023-06-26T08:27:48;95194.84;;;29.16;31.47
75166;BME280;63747;48.042;10.088;2023-06-26T08:30:52;95190.47;;;29.39;31.82
75166;BME280;63747;48.042;10.088;2023-06-26T08:33:53;95190.00;;;29.55;31.01
75166;BME280;63747;48.042;10.088;2023-06-26T08:36:54;95201.00;;;29.69;31.01
75166;BME280;63747;48.042;10.088;2023-06-26T08:39:54;95198.94;;;29.80;30.57
75166;BME280;63747;48.042;10.088;2023-06-26T08:42:55;95199.22;;;29.60;29.76
75166;BME280;63747;48.042;10.088;2023-06-26T08:45:56;95196.28;;;29.56;30.18
75166;BME280;63747;48.042;10.088;2023-06-26T08:49:13;95195.31;;;29.66;30.01
75166;BME280;63747;48.042;10.088;2023-06-26T08:52:22;95204.34;;;29.85;30.01
75166;BME280;63747;48.042;10.088;2023-06-26T08:55:23;95202.31;;;29.96;29.71
75166;BME280;63747;48.042;10.088;2023-06-26T08:58:26;95193.41;;;30.23;29.72
75166;BME280;63747;48.042;10.088;2023-06-26T09:01:27;95199.88;;;30.46;29.78
75166;BME280;63747;48.042;10.088;2023-06-26T09:04:28;95197.59;;;30.67;30.36
75166;BME280;63747;48.042;10.088;2023-06-26T09:07:29;95199.22;;;30.68;29.66
75166;BME280;63747;48.042;10.088;2023-06-26T09:10:30;95198.22;;;30.63;29.30
75166;BME280;63747;48.042;10.088;2023-06-26T09:13:39;95188.41;;;30.76;29.17
75166;BME280;63747;48.042;10.088;2023-06-26T09:16:40;95191.91;;;30.49;28.53
75166;BME280;63747;48.042;10.088;2023-06-26T09:19:45;95192.41;;;30.32;28.54
75166;BME280;63747;48.042;10.088;2023-06-26T09:22:47;95194.31;;;30.51;29.03
75166;BME280;63747;48.042;10.088;2023-06-26T09:25:48;95190.78;;;31.10;29.72
75166;BME280;63747;48.042;10.088;2023-06-26T09:28:51;95186.28;;;30.87;29.24
75166;BME280;63747;48.042;10.088;2023-06-26T09:31:52;95184.75;;;30.81;28.77
75166;BME280;63747;48.042;10.088;2023-06-26T09:34:53;95193.75;;;30.68;28.88
75166;BME280;63747;48.042;10.088;2023-06-26T09:37:57;95181.91;;;30.72;29.97
75166;BME280;63747;48.042;10.088;2023-06-26T09:40:58;95182.56;;;31.24;29.35
75166;BME280;63747;48.042;10.088;2023-06-26T09:44:01;95178.91;;;31.29;28.43
75166;BME280;63747;48.042;10.088;2023-06-26T09:47:02;95173.28;;;31.75;28.16
75166;BME280;63747;48.042;10.088;2023-06-26T09:50:04;95187.41;;;32.05;27.89
75166;BME280;63747;48.042;10.088;2023-06-26T09:53:11;95176.09;;;31.84;27.04
75166;BME280;63747;48.042;10.088;2023-06-26T09:56:18;95181.66;;;32.06;27.68
75166;BME280;63747;48.042;10.088;2023-06-26T09:59:19;95162.88;;;32.22;27.92
75166;BME280;63747;48.042;10.088;2023-06-26T10:02:19;95173.34;;;31.84;28.18
75166;BME280;63747;48.042;10.088;2023-06-26T10:05:20;95171.22;;;31.81;27.96
75166;BME280;63747;48.042;10.088;2023-06-26T10:08:21;95168.97;;;31.47;27.97
75166;BME280;63747;48.042;10.088;2023-06-26T10:11:22;95165.13;;;31.20;28.08
75166;BME280;63747;48.042;10.088;2023-06-26T10:14:27;95159.03;;;31.23;28.43
75166;BME280;63747;48.042;10.088;2023-06-26T10:17:31;95161.81;;;31.73;27.84
75166;BME280;63747;48.042;10.088;2023-06-26T10:20:33;95152.53;;;31.83;28.64
75166;BME280;63747;48.042;10.088;2023-06-26T10:23:34;95156.28;;;32.01;27.83
75166;BME280;63747;48.042;10.088;2023-06-26T10:26:41;95155.34;;;32.28;28.30
75166;BME280;63747;48.042;10.088;2023-06-26T10:29:49;95149.44;;;32.65;27.25
75166;BME280;63747;48.042;10.088;2023-06-26T10:32:51;95151.94;;;32.84;27.52
75166;BME280;63747;48.042;10.088;2023-06-26T10:35:52;95156.41;;;32.94;27.96
75166;BME280;63747;48.042;10.088;2023-06-26T10:38:58;95154.44;;;33.34;26.86
75166;BME280;63747;48.042;10.088;2023-06-26T10:42:08;95154.94;;;33.45;26.01
75166;BME280;63747;48.042;10.088;2023-06-26T10:45:17;95155.28;;;33.60;27.27
75166;BME280;63747;48.042;10.088;2023-06-26T10:48:18;95151.75;;;33.86;25.74
75166;BME280;63747;48.042;10.088;2023-06-26T10:51:18;95147.88;;;33.78;26.04
75166;BME280;63747;48.042;10.088;2023-06-26T10:54:20;95141.56;;;33.86;25.70
75166;BME280;63747;48.042;10.088;2023-06-26T10:57:25;95140.63;;;34.00;25.73
75166;BME280;63747;48.042;10.088;2023-06-26T11:00:25;95137.22;;;34.20;25.03
75166;BME280;63747;48.042;10.088;2023-06-26T11:03:29;95139.13;;;34.28;25.58
75166;BME280;63747;48.042;10.088;2023-06-26T11:06:32;95144.50;;;33.99;25.78
75166;BME280;63747;48.042;10.088;2023-06-26T11:09:53;95133.31;;;33.69;26.66
75166;BME280;63747;48.042;10.088;2023-06-26T11:12:57;95145.41;;;33.42;26.06
75166;BME280;63747;48.042;10.088;2023-06-26T11:15:58;95137.03;;;33.65;25.36
75166;BME280;63747;48.042;10.088;2023-06-26T11:18:59;95145.75;;;33.49;24.82
75166;BME280;63747;48.042;10.088;2023-06-26T11:22:04;95150.19;;;32.79;24.77
75166;BME280;63747;48.042;10.088;2023-06-26T11:25:06;95144.31;;;32.72;24.70
75166;BME280;63747;48.042;10.088;2023-06-26T11:28:09;95145.34;;;32.54;25.21
75166;BME280;63747;48.042;10.088;2023-06-26T11:31:26;95152.22;;;33.05;25.14
75166;BME280;63747;48.042;10.088;2023-06-26T11:34:30;95139.69;;;33.21;24.47
75166;BME280;63747;48.042;10.088;2023-06-26T11:37:34;95141.25;;;33.05;25.08
75166;BME280;63747;48.042;10.088;2023-06-26T11:40:36;95139.41;;;33.40;25.12
75166;BME280;63747;48.042;10.088;2023-06-26T11:43:37;95147.72;;;33.75;25.38
75166;BME280;63747;48.042;10.088;2023-06-26T11:46:38;95143.19;;;33.79;24.74
75166;BME280;63747;48.042;10.088;2023-06-26T11:49:42;95136.63;;;33.31;25.59
75166;BME280;63747;48.042;10.088;2023-06-26T11:52:44;95144.31;;;33.69;24.49
75166;BME280;63747;48.042;10.088;2023-06-26T11:55:45;95129.91;;;34.33;24.03
75166;BME280;63747;48.042;10.088;2023-06-26T12:02:07;95132.66;;;33.72;25.63
75166;BME280;63747;48.042;10.088;2023-06-26T12:05:09;95136.41;;;33.94;25.03
75166;BME280;63747;48.042;10.088;2023-06-26T12:08:10;95123.06;;;34.65;24.10
75166;BME280;63747;48.042;10.088;2023-06-26T12:11:12;95121.91;;;34.83;23.76
75166;BME280;63747;48.042;10.088;2023-06-26T12:14:13;95134.31;;;34.43;23.49
75166;BME280;63747;48.042;10.088;2023-06-26T12:17:14;95142.72;;;33.68;23.94
75166;BME280;63747;48.042;10.088;2023-06-26T12:20:22;95132.97;;;32.96;24.96
75166;BME280;63747;48.042;10.088;2023-06-26T12:23:23;95136.94;;;32.28;25.17
75166;BME280;63747;48.042;10.088;2023-06-26T12:26:25;95129.47;;;31.84;25.77
75166;BME280;63747;48.042;10.088;2023-06-26T12:29:32;95136.34;;;31.72;25.94
75166;BME280;63747;48.042;10.088;2023-06-26T12:32:34;95137.53;;;31.44;25.99
75166;BME280;63747;48.042;10.088;2023-06-26T12:35:36;95122.91;;;31.35;26.36
75166;BME280;63747;48.042;10.088;2023-06-26T12:38:37;95125.66;;;31.85;26.59
75166;BME280;63747;48.042;10.088;2023-06-26T12:41:47;95117.31;;;32.97;26.17
75166;BME280;63747;48.042;10.088;2023-06-26T12:44:48;95111.91;;;33.31;24.75
75166;BME280;63747;48.042;10.088;2023-06-26T12:47:49;95113.34;;;33.29;24.60
75166;BME280;63747;48.042;10.088;2023-06-26T12:50:49;95111.69;;;33.11;24.74
75166;BME280;63747;48.042;10.088;2023-06-26T12:53:50;95125.69;;;33.40;24.23
75166;BME280;63747;48.042;10.088;2023-06-26T12:56:52;95136.88;;;33.04;24.96
75166;BME280;63747;48.042;10.088;2023-06-26T12:59:53;95117.84;;;32.23;25.16
75166;BME280;63747;48.042;10.088;2023-06-26T13:02:53;95114.41;;;31.72;26.55
75166;BME280;63747;48.042;10.088;2023-06-26T13:05:54;95118.28;;;31.71;26.53
75166;BME280;63747;48.042;10.088;2023-06-26T13:08:55;95115.53;;;31.71;26.69
75166;BME280;63747;48.042;10.088;2023-06-26T13:11:55;95109.69;;;31.37;26.43
75166;BME280;63747;48.042;10.088;2023-06-26T13:14:56;95118.34;;;31.16;27.40
75166;BME280;63747;48.042;10.088;2023-06-26T13:17:57;95119.91;;;30.95;27.91
75166;BME280;63747;48.042;10.088;2023-06-26T13:20:57;95116.72;;;30.60;28.09
75166;BME280;63747;48.042;10.088;2023-06-26T13:23:58;95127.03;;;30.17;30.45
75166;BME280;63747;48.042;10.088;2023-06-26T13:26:59;95150.81;;;29.84;31.29
75166;BME280;63747;48.042;10.088;2023-06-26T13:30:00;95157.34;;;29.02;34.27
75166;BME280;63747;48.042;10.088;2023-06-26T13:33:02;95161.38;;;27.89;37.05
75166;BME280;63747;48.042;10.088;2023-06-26T13:36:03;95164.34;;;26.83;40.37
75166;BME280;63747;48.042;10.088;2023-06-26T13:39:05;95168.47;;;26.55;41.57
75166;BME280;63747;48.042;10.088;2023-06-26T13:42:05;95174.44;;;26.27;42.26
75166;BME280;63747;48.042;10.088;2023-06-26T13:45:07;95175.56;;;25.95;42.70
75166;BME280;63747;48.042;10.088;2023-06-26T13:48:08;95168.22;;;25.96;42.76
75166;BME280;63747;48.042;10.088;2023-06-26T13:51:08;95151.63;;;26.53;42.95
75166;BME280;63747;48.042;10.088;2023-06-26T13:54:09;95148.28;;;27.47;42.58
75166;BME280;63747;48.042;10.088;2023-06-26T13:57:10;95150.91;;;27.67;42.68
75166;BME280;63747;48.042;10.088;2023-06-26T14:00:11;95142.31;;;27.84;42.00
75166;BME280;63747;48.042;10.088;2023-06-26T14:03:12;95142.59;;;28.21;40.81
75166;BME280;63747;48.042;10.088;2023-06-26T14:06:13;95135.41;;;28.31;40.60
75166;BME280;63747;48.042;10.088;2023-06-26T14:09:14;95138.03;;;28.46;39.54
75166;BME280;63747;48.042;10.088;2023-06-26T14:12:15;95133.78;;;28.59;40.32
75166;BME280;63747;48.042;10.088;2023-06-26T14:15:16;95135.16;;;28.85;38.74
75166;BME280;63747;48.042;10.088;2023-06-26T14:18:17;95133.00;;;29.68;38.56
75166;BME280;63747;48.042;10.088;2023-06-26T14:21:18;95128.78;;;30.59;38.33
75166;BME280;63747;48.042;10.088;2023-06-26T14:24:19;95130.81;;;31.23;36.03
75166;BME280;63747;48.042;10.088;2023-06-26T14:27:20;95152.09;;;31.67;35.64
75166;BME280;63747;48.042;10.088;2023-06-26T14:30:21;95152.13;;;31.53;33.72
75166;BME280;63747;48.042;10.088;2023-06-26T14:33:21;95148.78;;;31.42;36.32
75166;BME280;63747;48.042;10.088;2023-06-26T14:36:22;95150.41;;;31.43;35.16
75166;BME280;63747;48.042;10.088;2023-06-26T14:39:23;95141.47;;;31.38;35.09
75166;BME280;63747;48.042;10.088;2023-06-26T14:42:24;95128.91;;;31.09;35.38
75166;BME280;63747;48.042;10.088;2023-06-26T14:45:24;95122.00;;;30.71;36.77
75166;BME280;63747;48.042;10.088;2023-06-26T14:48:25;95117.34;;;30.71;35.65
75166;BME280;63747;48.042;10.088;2023-06-26T14:51:26;95114.09;;;30.83;36.53
75166;BME280;63747;48.042;10.088;2023-06-26T14:54:26;95117.34;;;31.12;35.95
75166;BME280;63747;48.042;10.088;2023-06-26T14:57:27;95116.59;;;31.34;35.70
75166;BME280;63747;48.042;10.088;2023-06-26T15:00:28;95120.06;;;31.26;35.43
75166;BME280;63747;48.042;10.088;2023-06-26T15:03:28;95109.03;;;31.17;34.68
75166;BME280;63747;48.042;10.088;2023-06-26T15:06:29;95107.91;;;30.77;35.83
75166;BME280;63747;48.042;10.088;2023-06-26T15:09:30;95101.41;;;30.59;35.34
75166;BME280;63747;48.042;10.088;2023-06-26T15:12:32;95094.63;;;30.10;36.77
75166;BME280;63747;48.042;10.088;2023-06-26T15:15:33;95101.91;;;29.64;35.98
75166;BME280;63747;48.042;10.088;2023-06-26T15:18:33;95115.78;;;29.06;37.79
75166;BME280;63747;48.042;10.088;2023-06-26T15:21:34;95104.16;;;28.76;37.67
75166;BME280;63747;48.042;10.088;2023-06-26T15:24:35;95105.78;;;28.77;37.94
75166;BME280;63747;48.042;10.088;2023-06-26T15:27:36;95105.81;;;28.72;38.42
75166;BME280;63747;48.042;10.088;2023-06-26T15:30:36;95096.56;;;28.73;38.52
75166;BME280;63747;48.042;10.088;2023-06-26T15:33:37;95091.69;;;28.65;38.91
75166;BME280;63747;48.042;10.088;2023-06-26T15:36:38;95081.91;;;28.64;39.47
75166;BME280;63747;48.042;10.088;2023-06-26T15:39:38;95080.66;;;28.80;39.02
75166;BME280;63747;48.042;10.088;2023-06-26T15:42:46;95085.69;;;28.68;38.85
75166;BME280;63747;48.042;10.088;2023-06-26T15:45:47;95086.38;;;28.55;39.25
75166;BME280;63747;48.042;10.088;2023-06-26T15:48:48;95083.47;;;28.70;38.89
75166;BME280;63747;48.042;10.088;2023-06-26T15:51:48;95076.28;;;28.79;39.18
75166;BME280;63747;48.042;10.088;2023-06-26T15:54:49;95067.97;;;29.32;38.16
75166;BME280;63747;48.042;10.088;2023-06-26T15:57:50;95063.78;;;29.72;37.45
75166;BME280;63747;48.042;10.088;2023-06-26T16:00:50;95056.09;;;29.42;37.48